Cannon Air Force Base
KCVS : now visible

Airfield :











YOU CAN JOIN US ON...

 
LOGIN :

Register | Disclaimer

   EN    FR    IT 

 









Legend :    VFR   Marginal VFR   IFR   Intensive IFR   Very Intensive IFR
Visi :
Ceiling :
>= 8 km
>= 3000ft
5 to 8 km
1000 to 3000 ft
1500m to 5 km
500 to 1000 ft
800 to 1500m
200 to 500 ft
< 800m
< 200 ft
Symbols :   Thunderstorms  Fog  Heavy snow  Heavy precipitations  Wind > 20 kt






- Airport Elevation : 4295 ft


KCVS - Cannon Air Force Base

CURRENT METAR :
  • 291658Z AUTO 34009KT 10SM CLR 09/01 A3036 RMK AO2 SLP276 T00890011 $

EXPIRED METARs :
  • 291558Z AUTO 34012KT 10SM CLR 07/01 A3034 RMK AO2 SLP272 T00710005 $
  • 291501Z 34015KT 10SM CLR 05/00 A3033 RMK SLP276 $
  • 291458Z AUTO 34016KT 10SM CLR 05/00 A3032 RMK AO2 SLP272 T00530003 52030 $

TAF AMD TAF KCVS
Valid from the 29 at 12:00 until the 30 at 16:00 UTC


291240Z 2912/3016 33012G20KT 9999 FEW220 QNH3012INS
BECMG 2915/2916 33015G28KT 9999 FEW220 510205 QNH3024INS
BECMG 3000/3001 VRB06KT 9999 SKC QNH3023INS
BECMG 3014/3015 24010KT 9999 FEW210 QNH3027INS TX13/2922Z TN02/2913Z
KZAB FIR / North America



MET'MAP, your aeronautical weather chart ! - Copyright ORBIFLY December 2007 - Disclaimer

ORBIFLY MET'MAP TEAM :

Programming & Development : Alexandra Zaïnal
Concept & original design : Baudouin d'Aumeries
Assistance for programming : Marc-Olivier Méhu
Technical & hardware support : Manuel Goepfert

Contact : metmap@orbifly.com




SOURCES & CREDITS :

   NOAA       Earth
Advisory